Eight Mile, Alabama
Current Conditions -  °F | °C
As of 1:56 AM on Saturday 25 Oct 2014 (Local Time) from KMOB Reporting Station
Clear Clear  
Wind Chill: 53°   Ceiling: Unl
Heat Index: 53°   Visibility: 10mi
Dew Point: 46°   Wind: 6mph
Humidity: 77%   Direction: 350°N
Pressure: 30.08"   Gusts: NA
Location:  30.76°N, 88.13°W
Report Text: KMOB 250656Z AUTO 35005KT 10SM CLR 12/08 A3008 RMK AO2 SLP184 T01170078
Loading
Personal Weather Stations






























Interactive Weather Map New forecast layout! Learn more

10-Day Weather Forecast

Advertisements
Track Severe Weather on mobile